sensor_id;sensor_type;location;lat;lon;timestamp;temperature;humidity
37456;DHT22;23316;50.718;7.328;2023-03-01T00:01:39;4.20;43.20
37456;DHT22;23316;50.718;7.328;2023-03-01T00:04:06;4.20;43.20
37456;DHT22;23316;50.718;7.328;2023-03-01T00:06:33;4.20;43.30
37456;DHT22;23316;50.718;7.328;2023-03-01T00:09:01;4.10;43.30
37456;DHT22;23316;50.718;7.328;2023-03-01T00:11:31;4.10;43.30
37456;DHT22;23316;50.718;7.328;2023-03-01T00:14:01;4.10;43.30
37456;DHT22;23316;50.718;7.328;2023-03-01T00:16:32;4.10;43.40
37456;DHT22;23316;50.718;7.328;2023-03-01T00:19:00;4.10;43.50
37456;DHT22;23316;50.718;7.328;2023-03-01T00:21:27;4.10;43.50
37456;DHT22;23316;50.718;7.328;2023-03-01T00:23:55;4.10;43.50
37456;DHT22;23316;50.718;7.328;2023-03-01T00:26:24;4.00;43.50
37456;DHT22;23316;50.718;7.328;2023-03-01T00:28:53;4.00;43.50
37456;DHT22;23316;50.718;7.328;2023-03-01T00:31:23;4.00;43.60
37456;DHT22;23316;50.718;7.328;2023-03-01T00:33:52;4.00;43.60
37456;DHT22;23316;50.718;7.328;2023-03-01T00:36:24;4.00;43.60
37456;DHT22;23316;50.718;7.328;2023-03-01T00:38:51;3.90;43.60
37456;DHT22;23316;50.718;7.328;2023-03-01T00:41:20;3.90;43.70
37456;DHT22;23316;50.718;7.328;2023-03-01T00:43:49;3.90;43.80
37456;DHT22;23316;50.718;7.328;2023-03-01T00:46:20;3.90;43.80
37456;DHT22;23316;50.718;7.328;2023-03-01T00:48:48;3.80;43.70
37456;DHT22;23316;50.718;7.328;2023-03-01T00:51:17;3.80;43.70
37456;DHT22;23316;50.718;7.328;2023-03-01T00:53:45;3.70;43.80
37456;DHT22;23316;50.718;7.328;2023-03-01T00:56:14;3.70;43.80
37456;DHT22;23316;50.718;7.328;2023-03-01T00:58:42;3.70;43.80
37456;DHT22;23316;50.718;7.328;2023-03-01T01:01:09;3.60;43.90
37456;DHT22;23316;50.718;7.328;2023-03-01T01:03:46;3.60;44.00
37456;DHT22;23316;50.718;7.328;2023-03-01T01:06:15;3.60;44.10
37456;DHT22;23316;50.718;7.328;2023-03-01T01:08:42;3.60;44.10
37456;DHT22;23316;50.718;7.328;2023-03-01T01:11:10;3.60;44.20
37456;DHT22;23316;50.718;7.328;2023-03-01T01:13:38;3.50;44.10
37456;DHT22;23316;50.718;7.328;2023-03-01T01:16:06;3.60;44.20
37456;DHT22;23316;50.718;7.328;2023-03-01T01:18:33;3.50;44.20
37456;DHT22;23316;50.718;7.328;2023-03-01T01:21:05;3.50;44.20
37456;DHT22;23316;50.718;7.328;2023-03-01T01:23:33;3.50;44.30
37456;DHT22;23316;50.718;7.328;2023-03-01T01:26:04;3.50;44.30
37456;DHT22;23316;50.718;7.328;2023-03-01T01:28:31;3.50;44.40
37456;DHT22;23316;50.718;7.328;2023-03-01T01:30:59;3.50;44.40
37456;DHT22;23316;50.718;7.328;2023-03-01T01:33:26;3.50;44.40
37456;DHT22;23316;50.718;7.328;2023-03-01T01:35:54;3.50;44.40
37456;DHT22;23316;50.718;7.328;2023-03-01T01:38:22;3.50;44.40
37456;DHT22;23316;50.718;7.328;2023-03-01T01:40:50;3.50;44.50
37456;DHT22;23316;50.718;7.328;2023-03-01T01:43:20;3.50;44.50
37456;DHT22;23316;50.718;7.328;2023-03-01T01:45:48;3.50;44.50
37456;DHT22;23316;50.718;7.328;2023-03-01T01:48:19;3.50;44.50
37456;DHT22;23316;50.718;7.328;2023-03-01T01:50:50;3.40;44.50
37456;DHT22;23316;50.718;7.328;2023-03-01T01:53:19;3.50;44.60
37456;DHT22;23316;50.718;7.328;2023-03-01T01:55:53;3.50;44.60
37456;DHT22;23316;50.718;7.328;2023-03-01T01:58:25;3.40;44.60
37456;DHT22;23316;50.718;7.328;2023-03-01T02:00:53;3.40;44.70
37456;DHT22;23316;50.718;7.328;2023-03-01T02:03:24;3.40;44.70
37456;DHT22;23316;50.718;7.328;2023-03-01T02:05:58;3.40;44.80
37456;DHT22;23316;50.718;7.328;2023-03-01T02:08:30;3.40;44.90
37456;DHT22;23316;50.718;7.328;2023-03-01T02:11:00;3.40;44.80
37456;DHT22;23316;50.718;7.328;2023-03-01T02:13:30;3.40;44.90
37456;DHT22;23316;50.718;7.328;2023-03-01T02:15:58;3.40;44.90
37456;DHT22;23316;50.718;7.328;2023-03-01T02:18:26;3.40;44.90
37456;DHT22;23316;50.718;7.328;2023-03-01T02:21:05;3.40;44.90
37456;DHT22;23316;50.718;7.328;2023-03-01T02:23:36;3.40;45.00
37456;DHT22;23316;50.718;7.328;2023-03-01T02:26:07;3.30;44.90
37456;DHT22;23316;50.718;7.328;2023-03-01T02:28:40;3.30;45.00
37456;DHT22;23316;50.718;7.328;2023-03-01T02:31:10;3.30;45.00
37456;DHT22;23316;50.718;7.328;2023-03-01T02:33:56;3.30;45.00
37456;DHT22;23316;50.718;7.328;2023-03-01T02:36:26;3.30;45.10
37456;DHT22;23316;50.718;7.328;2023-03-01T02:38:57;3.30;45.10
37456;DHT22;23316;50.718;7.328;2023-03-01T02:41:26;3.30;45.10
37456;DHT22;23316;50.718;7.328;2023-03-01T02:43:56;3.30;45.10
37456;DHT22;23316;50.718;7.328;2023-03-01T02:46:25;3.30;45.10
37456;DHT22;23316;50.718;7.328;2023-03-01T02:48:54;3.30;45.20
37456;DHT22;23316;50.718;7.328;2023-03-01T02:51:42;3.30;45.20
37456;DHT22;23316;50.718;7.328;2023-03-01T02:54:18;3.20;45.20
37456;DHT22;23316;50.718;7.328;2023-03-01T02:56:48;3.20;45.20
37456;DHT22;23316;50.718;7.328;2023-03-01T02:59:20;3.20;45.20
37456;DHT22;23316;50.718;7.328;2023-03-01T03:01:48;3.20;45.20
37456;DHT22;23316;50.718;7.328;2023-03-01T03:04:17;3.20;45.20
37456;DHT22;23316;50.718;7.328;2023-03-01T03:06:45;3.20;45.20
37456;DHT22;23316;50.718;7.328;2023-03-01T03:09:13;3.10;45.20
37456;DHT22;23316;50.718;7.328;2023-03-01T03:11:42;3.20;45.30
37456;DHT22;23316;50.718;7.328;2023-03-01T03:14:10;3.10;45.30
37456;DHT22;23316;50.718;7.328;2023-03-01T03:16:41;3.10;45.30
37456;DHT22;23316;50.718;7.328;2023-03-01T03:19:09;3.10;45.30
37456;DHT22;23316;50.718;7.328;2023-03-01T03:21:36;3.10;45.30
37456;DHT22;23316;50.718;7.328;2023-03-01T03:24:04;3.10;45.40
37456;DHT22;23316;50.718;7.328;2023-03-01T03:26:32;3.10;45.40
37456;DHT22;23316;50.718;7.328;2023-03-01T03:28:59;3.10;45.50
37456;DHT22;23316;50.718;7.328;2023-03-01T03:31:27;3.10;45.50
37456;DHT22;23316;50.718;7.328;2023-03-01T03:33:56;3.10;45.60
37456;DHT22;23316;50.718;7.328;2023-03-01T03:36:25;3.10;45.70
37456;DHT22;23316;50.718;7.328;2023-03-01T03:38:52;3.10;45.70
37456;DHT22;23316;50.718;7.328;2023-03-01T03:41:19;3.00;45.70
37456;DHT22;23316;50.718;7.328;2023-03-01T03:43:47;3.10;45.70
37456;DHT22;23316;50.718;7.328;2023-03-01T03:46:14;3.10;45.80
37456;DHT22;23316;50.718;7.328;2023-03-01T03:48:44;3.00;45.80
37456;DHT22;23316;50.718;7.328;2023-03-01T03:51:16;3.00;45.80
37456;DHT22;23316;50.718;7.328;2023-03-01T03:53:44;3.00;45.90
37456;DHT22;23316;50.718;7.328;2023-03-01T03:56:12;3.00;45.90
37456;DHT22;23316;50.718;7.328;2023-03-01T03:58:39;3.00;45.90
37456;DHT22;23316;50.718;7.328;2023-03-01T04:01:06;3.00;45.80
37456;DHT22;23316;50.718;7.328;2023-03-01T04:03:34;3.00;45.80
37456;DHT22;23316;50.718;7.328;2023-03-01T04:06:02;3.00;45.80
37456;DHT22;23316;50.718;7.328;2023-03-01T04:08:31;2.90;45.80
37456;DHT22;23316;50.718;7.328;2023-03-01T04:11:00;2.90;45.80
37456;DHT22;23316;50.718;7.328;2023-03-01T04:13:48;2.90;45.90
37456;DHT22;23316;50.718;7.328;2023-03-01T04:16:15;2.90;45.80
37456;DHT22;23316;50.718;7.328;2023-03-01T04:18:43;2.90;45.80
37456;DHT22;23316;50.718;7.328;2023-03-01T04:21:11;2.90;45.90
37456;DHT22;23316;50.718;7.328;2023-03-01T04:23:40;2.90;45.90
37456;DHT22;23316;50.718;7.328;2023-03-01T04:26:07;2.90;46.10
37456;DHT22;23316;50.718;7.328;2023-03-01T04:28:37;2.90;46.00
37456;DHT22;23316;50.718;7.328;2023-03-01T04:31:07;2.90;46.10
37456;DHT22;23316;50.718;7.328;2023-03-01T04:33:40;2.80;46.10
37456;DHT22;23316;50.718;7.328;2023-03-01T04:36:11;2.90;46.20
37456;DHT22;23316;50.718;7.328;2023-03-01T04:38:40;2.80;46.00
37456;DHT22;23316;50.718;7.328;2023-03-01T04:41:09;2.90;46.00
37456;DHT22;23316;50.718;7.328;2023-03-01T04:43:37;2.80;46.00
37456;DHT22;23316;50.718;7.328;2023-03-01T04:46:06;2.80;46.00
37456;DHT22;23316;50.718;7.328;2023-03-01T04:48:35;2.80;46.10
37456;DHT22;23316;50.718;7.328;2023-03-01T04:51:03;2.80;46.10
37456;DHT22;23316;50.718;7.328;2023-03-01T04:53:32;2.80;46.10
37456;DHT22;23316;50.718;7.328;2023-03-01T04:56:00;2.80;46.20
37456;DHT22;23316;50.718;7.328;2023-03-01T04:58:28;2.80;46.20
37456;DHT22;23316;50.718;7.328;2023-03-01T05:00:55;2.80;46.20
37456;DHT22;23316;50.718;7.328;2023-03-01T05:03:23;2.70;46.20
37456;DHT22;23316;50.718;7.328;2023-03-01T05:05:51;2.70;46.20
37456;DHT22;23316;50.718;7.328;2023-03-01T05:08:19;2.70;46.30
37456;DHT22;23316;50.718;7.328;2023-03-01T05:10:49;2.70;46.30
37456;DHT22;23316;50.718;7.328;2023-03-01T05:13:17;2.70;46.30
37456;DHT22;23316;50.718;7.328;2023-03-01T05:15:48;2.70;46.40
37456;DHT22;23316;50.718;7.328;2023-03-01T05:18:15;2.70;46.50
37456;DHT22;23316;50.718;7.328;2023-03-01T05:20:43;2.70;46.60
37456;DHT22;23316;50.718;7.328;2023-03-01T05:23:10;2.70;46.60
37456;DHT22;23316;50.718;7.328;2023-03-01T05:25:38;2.70;46.70
37456;DHT22;23316;50.718;7.328;2023-03-01T05:28:07;2.70;46.70
37456;DHT22;23316;50.718;7.328;2023-03-01T05:30:38;2.70;46.70
37456;DHT22;23316;50.718;7.328;2023-03-01T05:33:06;2.70;46.70
37456;DHT22;23316;50.718;7.328;2023-03-01T05:35:39;2.70;46.70
37456;DHT22;23316;50.718;7.328;2023-03-01T05:38:08;2.70;46.70
37456;DHT22;23316;50.718;7.328;2023-03-01T05:40:35;2.70;46.70
37456;DHT22;23316;50.718;7.328;2023-03-01T05:43:03;2.70;46.80
37456;DHT22;23316;50.718;7.328;2023-03-01T05:45:31;2.70;46.80
37456;DHT22;23316;50.718;7.328;2023-03-01T05:48:00;2.70;46.80
37456;DHT22;23316;50.718;7.328;2023-03-01T05:50:29;2.70;46.80
37456;DHT22;23316;50.718;7.328;2023-03-01T05:52:58;2.70;46.80
37456;DHT22;23316;50.718;7.328;2023-03-01T05:55:27;2.70;46.70
37456;DHT22;23316;50.718;7.328;2023-03-01T05:57:54;2.70;46.70
37456;DHT22;23316;50.718;7.328;2023-03-01T06:00:22;2.70;46.70
37456;DHT22;23316;50.718;7.328;2023-03-01T06:02:50;2.70;46.70
37456;DHT22;23316;50.718;7.328;2023-03-01T06:05:19;2.70;46.70
37456;DHT22;23316;50.718;7.328;2023-03-01T06:07:46;2.70;46.70
37456;DHT22;23316;50.718;7.328;2023-03-01T06:10:14;2.70;46.70
37456;DHT22;23316;50.718;7.328;2023-03-01T06:12:42;2.70;46.70
37456;DHT22;23316;50.718;7.328;2023-03-01T06:15:11;2.60;46.70
37456;DHT22;23316;50.718;7.328;2023-03-01T06:17:40;2.60;46.60
37456;DHT22;23316;50.718;7.328;2023-03-01T06:20:11;2.60;46.60
37456;DHT22;23316;50.718;7.328;2023-03-01T06:22:40;2.60;46.70
37456;DHT22;23316;50.718;7.328;2023-03-01T06:25:09;2.60;46.70
37456;DHT22;23316;50.718;7.328;2023-03-01T06:27:36;2.60;46.70
37456;DHT22;23316;50.718;7.328;2023-03-01T06:30:05;2.60;46.90
37456;DHT22;23316;50.718;7.328;2023-03-01T06:32:33;2.50;46.90
37456;DHT22;23316;50.718;7.328;2023-03-01T06:35:01;2.50;46.80
37456;DHT22;23316;50.718;7.328;2023-03-01T06:37:28;2.50;46.80
37456;DHT22;23316;50.718;7.328;2023-03-01T06:39:57;2.50;46.80
37456;DHT22;23316;50.718;7.328;2023-03-01T06:42:24;2.50;46.80
37456;DHT22;23316;50.718;7.328;2023-03-01T06:44:51;2.50;46.90
37456;DHT22;23316;50.718;7.328;2023-03-01T06:47:18;2.50;46.90
37456;DHT22;23316;50.718;7.328;2023-03-01T06:49:46;2.50;47.00
37456;DHT22;23316;50.718;7.328;2023-03-01T06:52:13;2.50;47.10
37456;DHT22;23316;50.718;7.328;2023-03-01T06:54:40;2.50;47.10
37456;DHT22;23316;50.718;7.328;2023-03-01T06:57:09;2.50;47.10
37456;DHT22;23316;50.718;7.328;2023-03-01T06:59:36;2.50;47.10
37456;DHT22;23316;50.718;7.328;2023-03-01T07:02:03;2.50;47.10
37456;DHT22;23316;50.718;7.328;2023-03-01T07:04:30;2.50;47.20
37456;DHT22;23316;50.718;7.328;2023-03-01T07:06:58;2.50;47.20
37456;DHT22;23316;50.718;7.328;2023-03-01T07:09:25;2.50;47.40
37456;DHT22;23316;50.718;7.328;2023-03-01T07:11:52;2.50;47.40
37456;DHT22;23316;50.718;7.328;2023-03-01T07:14:21;2.60;47.40
37456;DHT22;23316;50.718;7.328;2023-03-01T07:16:50;2.60;47.40
37456;DHT22;23316;50.718;7.328;2023-03-01T07:19:17;2.60;47.40
37456;DHT22;23316;50.718;7.328;2023-03-01T07:21:45;2.60;47.40
37456;DHT22;23316;50.718;7.328;2023-03-01T07:24:12;2.60;47.40
37456;DHT22;23316;50.718;7.328;2023-03-01T07:26:39;2.60;47.30
37456;DHT22;23316;50.718;7.328;2023-03-01T07:29:07;2.70;47.30
37456;DHT22;23316;50.718;7.328;2023-03-01T07:31:37;2.70;47.30
37456;DHT22;23316;50.718;7.328;2023-03-01T07:34:05;2.70;47.30
37456;DHT22;23316;50.718;7.328;2023-03-01T07:36:32;2.70;47.30
37456;DHT22;23316;50.718;7.328;2023-03-01T07:38:59;2.80;47.40
37456;DHT22;23316;50.718;7.328;2023-03-01T07:41:28;2.80;47.40
37456;DHT22;23316;50.718;7.328;2023-03-01T07:44:00;2.80;47.30
37456;DHT22;23316;50.718;7.328;2023-03-01T07:46:59;2.80;47.40
37456;DHT22;23316;50.718;7.328;2023-03-01T07:49:32;2.80;47.40
37456;DHT22;23316;50.718;7.328;2023-03-01T07:53:11;2.90;47.50
37456;DHT22;23316;50.718;7.328;2023-03-01T07:59:21;2.90;47.60
37456;DHT22;23316;50.718;7.328;2023-03-01T08:02:09;2.90;47.50
37456;DHT22;23316;50.718;7.328;2023-03-01T08:04:37;3.00;47.60
37456;DHT22;23316;50.718;7.328;2023-03-01T08:07:05;3.00;47.60
37456;DHT22;23316;50.718;7.328;2023-03-01T08:09:34;3.00;47.70
37456;DHT22;23316;50.718;7.328;2023-03-01T08:12:01;3.00;47.70
37456;DHT22;23316;50.718;7.328;2023-03-01T08:14:30;3.10;47.80
37456;DHT22;23316;50.718;7.328;2023-03-01T08:16:58;3.10;47.90
37456;DHT22;23316;50.718;7.328;2023-03-01T08:19:26;3.20;47.90
37456;DHT22;23316;50.718;7.328;2023-03-01T08:21:54;3.30;47.90
37456;DHT22;23316;50.718;7.328;2023-03-01T08:24:24;3.30;47.80
37456;DHT22;23316;50.718;7.328;2023-03-01T08:26:51;3.30;47.80
37456;DHT22;23316;50.718;7.328;2023-03-01T08:29:18;3.40;47.80
37456;DHT22;23316;50.718;7.328;2023-03-01T08:31:46;3.40;47.80
37456;DHT22;23316;50.718;7.328;2023-03-01T08:34:14;3.50;48.30
37456;DHT22;23316;50.718;7.328;2023-03-01T08:36:45;3.50;47.70
37456;DHT22;23316;50.718;7.328;2023-03-01T08:39:14;3.60;47.80
37456;DHT22;23316;50.718;7.328;2023-03-01T08:41:42;3.60;47.70
37456;DHT22;23316;50.718;7.328;2023-03-01T08:44:10;3.60;47.80
37456;DHT22;23316;50.718;7.328;2023-03-01T08:46:39;3.70;47.90
37456;DHT22;23316;50.718;7.328;2023-03-01T08:49:08;3.70;47.90
37456;DHT22;23316;50.718;7.328;2023-03-01T08:51:36;3.80;47.90
37456;DHT22;23316;50.718;7.328;2023-03-01T08:54:06;3.80;47.80
37456;DHT22;23316;50.718;7.328;2023-03-01T08:56:33;3.90;47.90
37456;DHT22;23316;50.718;7.328;2023-03-01T08:59:01;3.90;47.80
37456;DHT22;23316;50.718;7.328;2023-03-01T09:01:28;4.00;47.70
37456;DHT22;23316;50.718;7.328;2023-03-01T09:03:56;4.00;47.70
37456;DHT22;23316;50.718;7.328;2023-03-01T09:06:23;4.10;47.70
37456;DHT22;23316;50.718;7.328;2023-03-01T09:08:50;4.20;47.60
37456;DHT22;23316;50.718;7.328;2023-03-01T09:11:20;4.20;47.60
37456;DHT22;23316;50.718;7.328;2023-03-01T09:13:48;4.30;47.50
37456;DHT22;23316;50.718;7.328;2023-03-01T09:16:18;4.30;47.40
37456;DHT22;23316;50.718;7.328;2023-03-01T09:18:49;4.40;47.40
37456;DHT22;23316;50.718;7.328;2023-03-01T09:21:17;4.50;47.40
37456;DHT22;23316;50.718;7.328;2023-03-01T09:23:47;4.50;47.30
37456;DHT22;23316;50.718;7.328;2023-03-01T09:26:16;4.60;47.30
37456;DHT22;23316;50.718;7.328;2023-03-01T09:28:47;4.60;47.30
37456;DHT22;23316;50.718;7.328;2023-03-01T09:31:16;4.70;47.10
37456;DHT22;23316;50.718;7.328;2023-03-01T09:33:46;4.70;47.10
37456;DHT22;23316;50.718;7.328;2023-03-01T09:36:15;4.80;47.10
37456;DHT22;23316;50.718;7.328;2023-03-01T09:38:42;4.90;47.00
37456;DHT22;23316;50.718;7.328;2023-03-01T09:41:14;4.90;47.00
37456;DHT22;23316;50.718;7.328;2023-03-01T09:43:50;5.00;47.00
37456;DHT22;23316;50.718;7.328;2023-03-01T09:46:20;5.00;46.90
37456;DHT22;23316;50.718;7.328;2023-03-01T09:48:52;5.10;46.90
37456;DHT22;23316;50.718;7.328;2023-03-01T09:51:26;5.20;46.80
37456;DHT22;23316;50.718;7.328;2023-03-01T09:53:53;5.20;46.60
37456;DHT22;23316;50.718;7.328;2023-03-01T09:56:30;5.30;46.70
37456;DHT22;23316;50.718;7.328;2023-03-01T09:59:10;5.30;46.50
37456;DHT22;23316;50.718;7.328;2023-03-01T10:01:45;5.40;46.40
37456;DHT22;23316;50.718;7.328;2023-03-01T10:04:28;5.40;46.30
37456;DHT22;23316;50.718;7.328;2023-03-01T10:07:11;5.50;46.20
37456;DHT22;23316;50.718;7.328;2023-03-01T10:09:41;5.50;46.10
37456;DHT22;23316;50.718;7.328;2023-03-01T10:12:11;5.60;46.20
37456;DHT22;23316;50.718;7.328;2023-03-01T10:14:48;5.60;46.20
37456;DHT22;23316;50.718;7.328;2023-03-01T10:17:26;5.70;46.20
37456;DHT22;23316;50.718;7.328;2023-03-01T10:19:55;5.70;46.00
37456;DHT22;23316;50.718;7.328;2023-03-01T10:22:26;5.80;46.00
37456;DHT22;23316;50.718;7.328;2023-03-01T10:24:56;5.80;45.90
37456;DHT22;23316;50.718;7.328;2023-03-01T10:27:26;5.90;45.80
37456;DHT22;23316;50.718;7.328;2023-03-01T10:30:05;5.90;45.70
37456;DHT22;23316;50.718;7.328;2023-03-01T10:32:37;5.90;45.60
37456;DHT22;23316;50.718;7.328;2023-03-01T10:35:16;6.00;45.60
37456;DHT22;23316;50.718;7.328;2023-03-01T10:37:57;6.00;45.60
37456;DHT22;23316;50.718;7.328;2023-03-01T10:40:24;6.10;45.30
37456;DHT22;23316;50.718;7.328;2023-03-01T10:42:51;6.10;45.30
37456;DHT22;23316;50.718;7.328;2023-03-01T10:45:34;6.20;45.20
37456;DHT22;23316;50.718;7.328;2023-03-01T10:48:10;6.20;45.20
37456;DHT22;23316;50.718;7.328;2023-03-01T10:50:40;6.30;45.20
37456;DHT22;23316;50.718;7.328;2023-03-01T10:53:21;6.30;45.10
37456;DHT22;23316;50.718;7.328;2023-03-01T10:55:57;6.40;44.90
37456;DHT22;23316;50.718;7.328;2023-03-01T10:58:25;6.40;44.70
37456;DHT22;23316;50.718;7.328;2023-03-01T11:00:55;6.40;44.70
37456;DHT22;23316;50.718;7.328;2023-03-01T11:03:25;6.50;44.60
37456;DHT22;23316;50.718;7.328;2023-03-01T11:05:58;6.50;44.50
37456;DHT22;23316;50.718;7.328;2023-03-01T11:08:40;6.50;44.30
37456;DHT22;23316;50.718;7.328;2023-03-01T11:11:26;6.60;44.30
37456;DHT22;23316;50.718;7.328;2023-03-01T11:13:58;6.70;44.50
37456;DHT22;23316;50.718;7.328;2023-03-01T11:16:31;6.70;44.40
37456;DHT22;23316;50.718;7.328;2023-03-01T11:19:13;6.70;44.10
37456;DHT22;23316;50.718;7.328;2023-03-01T11:21:44;6.80;44.10
37456;DHT22;23316;50.718;7.328;2023-03-01T11:24:15;6.80;44.10
37456;DHT22;23316;50.718;7.328;2023-03-01T11:26:45;6.90;44.00
37456;DHT22;23316;50.718;7.328;2023-03-01T11:29:23;6.90;44.10
37456;DHT22;23316;50.718;7.328;2023-03-01T11:31:56;7.00;44.10
37456;DHT22;23316;50.718;7.328;2023-03-01T11:34:34;7.00;43.90
37456;DHT22;23316;50.718;7.328;2023-03-01T11:37:10;7.10;43.90
37456;DHT22;23316;50.718;7.328;2023-03-01T11:39:42;7.10;43.50
37456;DHT22;23316;50.718;7.328;2023-03-01T11:42:13;7.10;43.50
37456;DHT22;23316;50.718;7.328;2023-03-01T11:44:43;7.20;42.90
37456;DHT22;23316;50.718;7.328;2023-03-01T11:47:25;7.20;42.90
37456;DHT22;23316;50.718;7.328;2023-03-01T11:50:16;7.30;43.20
37456;DHT22;23316;50.718;7.328;2023-03-01T11:52:56;7.30;42.90
37456;DHT22;23316;50.718;7.328;2023-03-01T11:55:40;7.30;43.10
37456;DHT22;23316;50.718;7.328;2023-03-01T11:58:29;7.40;43.20
37456;DHT22;23316;50.718;7.328;2023-03-01T12:01:10;7.40;43.00
37456;DHT22;23316;50.718;7.328;2023-03-01T12:06:50;7.60;42.60
37456;DHT22;23316;50.718;7.328;2023-03-01T12:09:38;7.60;42.50
37456;DHT22;23316;50.718;7.328;2023-03-01T12:12:24;7.60;41.70
37456;DHT22;23316;50.718;7.328;2023-03-01T12:15:04;7.70;41.90
37456;DHT22;23316;50.718;7.328;2023-03-01T12:17:49;7.70;42.10
37456;DHT22;23316;50.718;7.328;2023-03-01T12:20:28;7.80;42.20
37456;DHT22;23316;50.718;7.328;2023-03-01T12:23:21;7.90;42.10
37456;DHT22;23316;50.718;7.328;2023-03-01T12:25:55;7.90;41.90
37456;DHT22;23316;50.718;7.328;2023-03-01T12:28:40;8.00;42.10
37456;DHT22;23316;50.718;7.328;2023-03-01T12:34:17;8.00;41.40
37456;DHT22;23316;50.718;7.328;2023-03-01T12:37:09;8.10;41.70
37456;DHT22;23316;50.718;7.328;2023-03-01T12:39:49;8.10;41.20
37456;DHT22;23316;50.718;7.328;2023-03-01T12:42:23;8.20;41.20
37456;DHT22;23316;50.718;7.328;2023-03-01T12:45:16;8.20;40.40
37456;DHT22;23316;50.718;7.328;2023-03-01T12:47:58;8.20;40.30
37456;DHT22;23316;50.718;7.328;2023-03-01T12:50:39;8.30;40.70
37456;DHT22;23316;50.718;7.328;2023-03-01T12:53:20;8.40;40.50
37456;DHT22;23316;50.718;7.328;2023-03-01T12:55:49;8.40;40.50
37456;DHT22;23316;50.718;7.328;2023-03-01T12:58:24;8.50;40.60
37456;DHT22;23316;50.718;7.328;2023-03-01T13:01:03;8.50;40.20
37456;DHT22;23316;50.718;7.328;2023-03-01T13:03:51;8.50;40.00
37456;DHT22;23316;50.718;7.328;2023-03-01T13:06:25;8.60;39.90
37456;DHT22;23316;50.718;7.328;2023-03-01T13:09:04;8.60;39.90
37456;DHT22;23316;50.718;7.328;2023-03-01T13:11:33;8.60;38.90
37456;DHT22;23316;50.718;7.328;2023-03-01T13:14:35;8.60;38.90
37456;DHT22;23316;50.718;7.328;2023-03-01T13:17:02;8.70;39.20
37456;DHT22;23316;50.718;7.328;2023-03-01T13:19:29;8.70;39.70
37456;DHT22;23316;50.718;7.328;2023-03-01T13:21:58;8.80;39.50
37456;DHT22;23316;50.718;7.328;2023-03-01T13:24:32;8.80;39.50
37456;DHT22;23316;50.718;7.328;2023-03-01T13:27:21;8.80;39.10
37456;DHT22;23316;50.718;7.328;2023-03-01T13:29:51;8.90;38.50
37456;DHT22;23316;50.718;7.328;2023-03-01T13:32:21;8.90;39.00
37456;DHT22;23316;50.718;7.328;2023-03-01T13:34:50;8.90;39.00
37456;DHT22;23316;50.718;7.328;2023-03-01T13:37:36;9.00;39.00
37456;DHT22;23316;50.718;7.328;2023-03-01T13:43:32;9.10;37.90
37456;DHT22;23316;50.718;7.328;2023-03-01T13:46:00;9.10;37.70
37456;DHT22;23316;50.718;7.328;2023-03-01T13:48:30;9.20;37.00
37456;DHT22;23316;50.718;7.328;2023-03-01T13:50:59;9.20;37.60
37456;DHT22;23316;50.718;7.328;2023-03-01T13:53:33;9.30;38.00
37456;DHT22;23316;50.718;7.328;2023-03-01T13:56:06;9.30;37.80
37456;DHT22;23316;50.718;7.328;2023-03-01T13:58:47;9.40;37.40
37456;DHT22;23316;50.718;7.328;2023-03-01T14:01:23;9.40;36.00
37456;DHT22;23316;50.718;7.328;2023-03-01T14:03:51;9.40;36.60
37456;DHT22;23316;50.718;7.328;2023-03-01T14:06:22;9.50;37.30
37456;DHT22;23316;50.718;7.328;2023-03-01T14:08:52;9.50;36.90
37456;DHT22;23316;50.718;7.328;2023-03-01T14:14:46;9.60;36.40
37456;DHT22;23316;50.718;7.328;2023-03-01T14:17:47;9.70;36.80
37456;DHT22;23316;50.718;7.328;2023-03-01T14:20:19;9.70;36.90
37456;DHT22;23316;50.718;7.328;2023-03-01T14:22:50;9.70;37.10
37456;DHT22;23316;50.718;7.328;2023-03-01T14:25:22;9.80;37.10
37456;DHT22;23316;50.718;7.328;2023-03-01T14:27:54;9.80;36.60
37456;DHT22;23316;50.718;7.328;2023-03-01T14:30:25;9.80;36.00
37456;DHT22;23316;50.718;7.328;2023-03-01T14:32:54;9.90;34.90
37456;DHT22;23316;50.718;7.328;2023-03-01T14:35:23;9.90;34.70
37456;DHT22;23316;50.718;7.328;2023-03-01T14:37:51;9.90;35.70
37456;DHT22;23316;50.718;7.328;2023-03-01T14:40:27;10.00;36.00
37456;DHT22;23316;50.718;7.328;2023-03-01T14:42:57;10.00;36.10
37456;DHT22;23316;50.718;7.328;2023-03-01T14:45:28;10.00;36.20
37456;DHT22;23316;50.718;7.328;2023-03-01T14:47:59;10.00;36.30
37456;DHT22;23316;50.718;7.328;2023-03-01T14:50:28;10.00;35.40
37456;DHT22;23316;50.718;7.328;2023-03-01T14:52:58;10.10;34.70
37456;DHT22;23316;50.718;7.328;2023-03-01T14:55:29;10.10;35.30
37456;DHT22;23316;50.718;7.328;2023-03-01T14:57:57;10.10;35.60
37456;DHT22;23316;50.718;7.328;2023-03-01T15:00:28;10.10;35.70
37456;DHT22;23316;50.718;7.328;2023-03-01T15:02:58;10.20;35.70
37456;DHT22;23316;50.718;7.328;2023-03-01T15:05:29;10.20;35.70
37456;DHT22;23316;50.718;7.328;2023-03-01T15:07:58;10.20;35.50
37456;DHT22;23316;50.718;7.328;2023-03-01T15:10:29;10.20;35.30
37456;DHT22;23316;50.718;7.328;2023-03-01T15:13:09;10.20;35.10
37456;DHT22;23316;50.718;7.328;2023-03-01T15:15:41;10.20;34.80
37456;DHT22;23316;50.718;7.328;2023-03-01T15:18:18;10.20;34.80
37456;DHT22;23316;50.718;7.328;2023-03-01T15:20:47;10.20;34.80
37456;DHT22;23316;50.718;7.328;2023-03-01T15:23:23;10.20;34.20
37456;DHT22;23316;50.718;7.328;2023-03-01T15:25:51;10.20;34.40
37456;DHT22;23316;50.718;7.328;2023-03-01T15:28:25;10.20;34.60
37456;DHT22;23316;50.718;7.328;2023-03-01T15:30:57;10.20;34.60
37456;DHT22;23316;50.718;7.328;2023-03-01T15:33:31;10.30;34.70
37456;DHT22;23316;50.718;7.328;2023-03-01T15:36:00;10.30;34.80
37456;DHT22;23316;50.718;7.328;2023-03-01T15:38:31;10.30;34.70
37456;DHT22;23316;50.718;7.328;2023-03-01T15:41:00;10.30;34.60
37456;DHT22;23316;50.718;7.328;2023-03-01T15:43:39;10.30;34.70
37456;DHT22;23316;50.718;7.328;2023-03-01T15:46:17;10.30;34.60
37456;DHT22;23316;50.718;7.328;2023-03-01T15:48:46;10.30;34.60
37456;DHT22;23316;50.718;7.328;2023-03-01T15:51:15;10.30;34.70
37456;DHT22;23316;50.718;7.328;2023-03-01T15:53:49;10.30;34.40
37456;DHT22;23316;50.718;7.328;2023-03-01T15:56:17;10.30;34.30
37456;DHT22;23316;50.718;7.328;2023-03-01T15:58:44;10.30;34.40
37456;DHT22;23316;50.718;7.328;2023-03-01T16:01:15;10.30;34.30
37456;DHT22;23316;50.718;7.328;2023-03-01T16:03:44;10.30;34.30
37456;DHT22;23316;50.718;7.328;2023-03-01T16:06:11;10.30;34.40
37456;DHT22;23316;50.718;7.328;2023-03-01T16:08:39;10.40;34.50
37456;DHT22;23316;50.718;7.328;2023-03-01T16:11:14;10.30;34.60
37456;DHT22;23316;50.718;7.328;2023-03-01T16:13:42;10.30;34.20
37456;DHT22;23316;50.718;7.328;2023-03-01T16:16:10;10.30;34.20
37456;DHT22;23316;50.718;7.328;2023-03-01T16:18:43;10.30;34.30
37456;DHT22;23316;50.718;7.328;2023-03-01T16:21:20;10.30;34.30
37456;DHT22;23316;50.718;7.328;2023-03-01T16:23:48;10.40;34.20
37456;DHT22;23316;50.718;7.328;2023-03-01T16:26:15;10.30;34.10
37456;DHT22;23316;50.718;7.328;2023-03-01T16:28:45;10.40;34.10